Time;durP1;ratioP1;P1;durP2;ratioP2;P2;SDS_P1;SDS_P2;PMS_P1;PMS_P2;Temp;Humidity;BMP_temperature;BMP_pressure;BME280_temperature;BME280_humidity;BME280_pressure;Samples;Min_cycle;Max_cycle;Signal;HPM_P1;HPM_P2
2022/11/23 00:00:24;;;;;;;7.17;4.50;;;;;;;8.10;nan;-24043.28;5032596;28;20536;-74
2022/11/23 00:02:54;;;;;;;9.33;5.20;;;;;;;8.15;nan;-24044.69;5032343;28;20261;-74
2022/11/23 00:05:19;;;;;;;6.20;4.50;;;;;;;8.46;nan;-24053.34;5031943;28;20164;-74
2022/11/23 00:07:45;;;;;;;11.20;6.10;;;;;;;8.42;nan;-24052.19;5032681;28;20257;-74
2022/11/23 00:10:10;;;;;;;10.20;5.37;;;;;;;8.19;nan;-24045.81;5032838;28;20234;-74
2022/11/23 00:12:36;;;;;;;9.63;5.60;;;;;;;8.06;nan;-24042.16;5014491;28;20597;-74
2022/11/23 00:15:01;;;;;;;9.43;5.27;;;;;;;8.24;nan;-24047.09;5032788;28;20623;-74
2022/11/23 00:17:26;;;;;;;10.63;5.33;;;;;;;8.19;nan;-24045.69;5033013;28;20175;-74
2022/11/23 00:19:52;;;;;;;13.57;4.97;;;;;;;8.35;nan;-24050.38;5032841;28;20183;-74
2022/11/23 00:22:17;;;;;;;9.57;4.93;;;;;;;8.53;nan;-24055.16;5033032;28;20175;-74
2022/11/23 00:24:43;;;;;;;10.83;5.03;;;;;;;8.75;nan;-24061.53;5032891;28;20211;-72
2022/11/23 00:27:08;;;;;;;8.77;5.23;;;;;;;8.62;nan;-24057.88;5032355;28;20179;-73
2022/11/23 00:29:33;;;;;;;8.50;4.77;;;;;;;8.57;nan;-24056.44;5032137;28;20698;-73
2022/11/23 00:31:59;;;;;;;11.17;5.00;;;;;;;8.50;nan;-24054.31;5032688;28;20179;-73
2022/11/23 00:34:24;;;;;;;10.03;5.83;;;;;;;8.61;nan;-24057.44;5032220;28;20270;-73
2022/11/23 00:36:50;;;;;;;8.63;5.40;;;;;;;8.82;nan;-24063.38;5032827;28;20233;-73
2022/11/23 00:39:15;;;;;;;7.57;5.23;;;;;;;8.64;nan;-24058.44;5032474;28;20175;-73
2022/11/23 00:41:41;;;;;;;9.10;4.80;;;;;;;8.64;nan;-24058.44;5031671;28;20206;-73
2022/11/23 00:44:06;;;;;;;11.27;5.43;;;;;;;8.37;nan;-24050.94;5032718;28;20167;-73
2022/11/23 00:46:32;;;;;;;11.00;5.33;;;;;;;8.41;nan;-24051.91;5032305;28;20203;-73
2022/11/23 00:48:57;;;;;;;13.93;6.18;;;;;;;8.90;nan;-24065.50;5031874;28;20163;-73
2022/11/23 00:51:31;;;;;;;9.50;5.00;;;;;;;8.67;nan;-24059.28;5032211;28;20290;-73
2022/11/23 00:53:58;;;;;;;5.50;4.20;;;;;;;8.48;nan;-24053.91;5032464;28;20168;-73
2022/11/23 00:56:24;;;;;;;11.00;5.43;;;;;;;8.70;nan;-24060.13;5014594;28;20618;-73
2022/11/23 00:58:50;;;;;;;6.70;4.60;;;;;;;8.71;nan;-24060.25;5014079;28;20211;-73
2022/11/23 01:01:18;;;;;;;7.97;4.70;;;;;;;8.44;nan;-24052.78;5031976;28;20280;-73
2022/11/23 01:03:48;;;;;;;12.30;5.30;;;;;;;8.47;nan;-24053.47;5031706;28;20636;-73
2022/11/23 01:06:17;;;;;;;10.33;5.17;;;;;;;8.64;nan;-24058.44;5032447;28;20187;-73
2022/11/23 01:08:48;;;;;;;13.17;6.07;;;;;;;8.72;nan;-24060.56;5032003;28;20180;-73
2022/11/23 01:11:13;;;;;;;8.97;4.63;;;;;;;8.57;nan;-24056.31;5031738;28;20241;-73
2022/11/23 01:13:40;;;;;;;10.33;5.70;;;;;;;8.47;nan;-24053.63;5033353;28;20271;-73
2022/11/23 01:16:20;;;;;;;6.63;4.33;;;;;;;8.55;nan;-24055.75;5026478;28;20179;-73
2022/11/23 01:18:46;;;;;;;12.97;5.57;;;;;;;8.48;nan;-24053.75;5034250;28;20185;-73
2022/11/23 01:21:11;;;;;;;7.67;4.97;;;;;;;8.70;nan;-24060.13;5034267;28;20178;-73
2022/11/23 01:23:37;;;;;;;9.17;4.97;;;;;;;8.57;nan;-24056.44;5034195;28;20183;-73
2022/11/23 01:26:07;;;;;;;9.80;5.70;;;;;;;8.43;nan;-24052.47;5016088;28;20186;-73
2022/11/23 01:28:34;;;;;;;7.10;4.70;;;;;;;8.30;nan;-24048.94;5031009;28;20257;-72
2022/11/23 01:31:11;;;;;;;7.60;4.30;;;;;;;8.34;nan;-24049.94;5031461;28;20207;-73
2022/11/23 01:33:37;;;;;;;9.53;5.47;;;;;;;8.22;nan;-24046.53;5031998;28;20233;-73
2022/11/23 01:36:17;;;;;;;7.20;4.90;;;;;;;8.12;nan;-24043.69;5031419;28;20179;-72
2022/11/23 01:38:44;;;;;;;9.63;4.60;;;;;;;7.88;nan;-24037.19;5031666;28;20175;-73
2022/11/23 01:41:21;;;;;;;6.67;4.33;;;;;;;7.70;nan;-24031.94;5031129;28;20623;-73
2022/11/23 01:43:47;;;;;;;9.73;5.00;;;;;;;7.82;nan;-24035.47;5030938;28;20175;-74
2022/11/23 01:46:13;;;;;;;8.87;4.60;;;;;;;7.71;nan;-24032.38;5031494;28;20266;-73
2022/11/23 01:49:00;;;;;;;8.87;5.33;;;;;;;7.56;nan;-24028.13;5031332;28;20175;-73
2022/11/23 01:51:38;;;;;;;7.60;4.63;;;;;;;7.22;nan;-24018.47;5030914;28;20666;-74
2022/11/23 01:54:08;;;;;;;8.67;4.67;;;;;;;7.69;nan;-24031.66;5031373;28;20179;-74
2022/11/23 01:56:42;;;;;;;7.10;4.47;;;;;;;7.70;nan;-24032.09;5031472;28;20233;-74
2022/11/23 01:59:13;;;;;;;9.67;4.70;;;;;;;7.94;nan;-24038.88;5031416;28;20233;-74
2022/11/23 02:01:39;;;;;;;6.63;4.10;;;;;;;7.87;nan;-24036.91;5031578;28;20180;-74
2022/11/23 02:04:07;;;;;;;7.10;4.70;;;;;;;7.61;nan;-24029.53;5031307;28;20176;-74
2022/11/23 02:06:33;;;;;;;7.33;5.00;;;;;;;7.47;nan;-24025.72;5031458;28;20240;-74
2022/11/23 02:08:59;;;;;;;9.50;5.00;;;;;;;7.87;nan;-24036.75;5031621;28;20167;-74
2022/11/23 02:11:25;;;;;;;6.33;4.50;;;;;;;7.34;nan;-24021.88;5031446;28;20548;-74
2022/11/23 02:13:50;;;;;;;7.87;5.40;;;;;;;7.86;nan;-24036.63;5031091;28;20233;-74
2022/11/23 02:16:17;;;;;;;10.20;5.17;;;;;;;8.04;nan;-24041.56;5030671;28;20254;-74
2022/11/23 02:18:45;;;;;;;6.03;4.53;;;;;;;7.93;nan;-24038.59;5031428;28;20672;-74
2022/11/23 02:21:11;;;;;;;9.30;5.00;;;;;;;7.71;nan;-24032.22;5031137;28;20638;-74
2022/11/23 02:24:02;;;;;;;7.87;4.73;;;;;;;7.98;nan;-24040.03;5030970;28;20185;-74
2022/11/23 02:26:31;;;;;;;9.00;4.80;;;;;;;7.87;nan;-24036.91;5031033;28;20168;-74
2022/11/23 02:29:19;;;;;;;7.07;4.83;;;;;;;7.98;nan;-24040.03;5031452;28;20222;-73
2022/11/23 02:31:44;;;;;;;8.63;5.13;;;;;;;8.00;nan;-24040.59;5035071;28;20792;-73
2022/11/23 02:34:10;;;;;;;6.57;4.57;;;;;;;7.71;nan;-24032.38;5034931;28;20220;-74
2022/11/23 02:36:45;;;;;;;14.73;6.00;;;;;;;8.11;nan;-24043.41;5034383;28;20171;-74
2022/11/23 02:39:14;;;;;;;8.67;4.83;;;;;;;7.87;nan;-24036.75;5016514;28;20179;-74
2022/11/23 02:41:44;;;;;;;7.23;4.67;;;;;;;7.72;nan;-24032.66;5034706;28;20179;-72
2022/11/23 02:44:28;;;;;;;5.83;4.30;;;;;;;8.02;nan;-24040.88;5034669;28;20271;-73
2022/11/23 02:46:53;;;;;;;5.80;4.13;;;;;;;8.13;nan;-24044.13;5034469;28;20189;-73
2022/11/23 02:49:19;;;;;;;5.93;4.00;;;;;;;8.13;nan;-24044.13;5034070;28;20254;-73
2022/11/23 02:51:44;;;;;;;6.83;4.20;;;;;;;8.04;nan;-24041.56;5034183;28;20199;-73
2022/11/23 02:54:10;;;;;;;7.20;4.13;;;;;;;7.96;nan;-24039.31;5034290;28;20761;-73
2022/11/23 02:56:35;;;;;;;8.90;4.67;;;;;;;8.33;nan;-24049.78;5017114;28;20175;-73
2022/11/23 02:59:00;;;;;;;7.53;4.07;;;;;;;8.37;nan;-24050.78;5034390;28;20171;-73
2022/11/23 03:01:27;;;;;;;8.33;4.47;;;;;;;8.24;nan;-24047.25;5034357;28;20176;-74
2022/11/23 03:03:53;;;;;;;8.57;4.77;;;;;;;7.81;nan;-24035.22;5034507;28;20591;-73
2022/11/23 03:06:18;;;;;;;5.57;4.10;;;;;;;8.39;nan;-24051.50;5034417;28;20176;-73
2022/11/23 03:08:43;;;;;;;6.17;4.23;;;;;;;8.08;nan;-24042.56;5034009;28;20172;-73
2022/11/23 03:11:09;;;;;;;7.03;4.50;;;;;;;8.44;nan;-24052.78;5034155;28;20195;-73
2022/11/23 03:13:34;;;;;;;7.87;4.83;;;;;;;8.18;nan;-24045.53;5013454;28;20539;-72
2022/11/23 03:16:00;;;;;;;7.43;4.37;;;;;;;8.60;nan;-24057.16;5013676;28;20203;-72
2022/11/23 03:18:26;;;;;;;7.10;3.87;;;;;;;8.49;nan;-24054.19;5013095;28;20164;-73
2022/11/23 03:20:51;;;;;;;6.57;3.73;;;;;;;8.57;nan;-24056.44;5013535;28;20172;-73
2022/11/23 03:23:17;;;;;;;10.33;4.50;;;;;;;8.41;nan;-24052.06;5013709;28;20176;-73
2022/11/23 03:25:42;;;;;;;5.63;3.97;;;;;;;8.43;nan;-24052.63;5013359;28;20266;-73
2022/11/23 03:28:08;;;;;;;5.57;3.53;;;;;;;8.47;nan;-24053.63;5013581;28;20558;-73
2022/11/23 03:30:33;;;;;;;6.63;4.10;;;;;;;8.85;nan;-24064.38;5031612;28;20239;-73
2022/11/23 03:32:58;;;;;;;5.73;3.80;;;;;;;8.78;nan;-24062.38;5033380;28;20178;-73
2022/11/23 03:35:24;;;;;;;7.47;4.23;;;;;;;8.69;nan;-24059.69;5032935;28;20184;-74
2022/11/23 03:37:49;;;;;;;6.60;4.30;;;;;;;8.67;nan;-24059.13;5032985;28;20268;-73
2022/11/23 03:40:15;;;;;;;7.27;3.90;;;;;;;8.97;nan;-24067.63;5032347;28;20262;-73
2022/11/23 03:42:40;;;;;;;6.23;3.97;;;;;;;8.58;nan;-24056.72;5033086;28;20175;-73
2022/11/23 03:45:07;;;;;;;5.70;3.70;;;;;;;8.85;nan;-24064.38;5032400;28;20642;-73
2022/11/23 03:47:32;;;;;;;8.63;4.47;;;;;;;8.60;nan;-24057.28;5033529;28;20176;-73
2022/11/23 03:49:58;;;;;;;8.07;4.47;;;;;;;8.73;nan;-24060.97;4827666;28;20969;-74
2022/11/23 03:52:23;;;;;;;7.03;4.13;;;;;;;8.90;nan;-24065.50;4362802;28;20883;-72
2022/11/23 03:54:48;;;;;;;5.53;3.70;;;;;;;8.49;nan;-24054.03;5033140;28;20178;-73
2022/11/23 03:57:14;;;;;;;8.13;4.33;;;;;;;8.68;nan;-24059.41;5033302;28;20163;-73
2022/11/23 03:59:39;;;;;;;5.00;3.80;;;;;;;8.43;nan;-24052.47;5033267;28;20182;-73
2022/11/23 04:02:06;;;;;;;5.40;3.37;;;;;;;8.79;nan;-24062.66;5032676;28;20205;-73
2022/11/23 04:04:32;;;;;;;6.53;3.97;;;;;;;8.57;nan;-24056.44;5033137;28;20174;-73
2022/11/23 04:06:57;;;;;;;5.67;3.83;;;;;;;8.51;nan;-24054.59;5032990;28;20183;-73
2022/11/23 04:09:22;;;;;;;6.23;3.33;;;;;;;8.21;nan;-24046.41;5033284;28;20249;-73
2022/11/23 04:11:48;;;;;;;7.77;3.80;;;;;;;8.59;nan;-24057.00;5032906;28;20211;-73
2022/11/23 04:14:13;;;;;;;5.00;3.50;;;;;;;8.83;nan;-24063.81;5035510;28;20671;-73
2022/11/23 04:16:39;;;;;;;6.20;4.47;;;;;;;8.92;nan;-24066.06;5035394;28;20238;-74
2022/11/23 04:19:04;;;;;;;5.27;4.07;;;;;;;8.97;nan;-24067.47;5033938;28;20270;-74
2022/11/23 04:21:30;;;;;;;5.60;2.97;;;;;;;8.76;nan;-24061.81;5035799;28;20186;-74
2022/11/23 04:23:55;;;;;;;6.50;3.43;;;;;;;8.84;nan;-24063.94;5035470;28;20191;-74
2022/11/23 04:26:21;;;;;;;5.27;3.47;;;;;;;8.82;nan;-24063.53;5034118;28;20222;-73
2022/11/23 04:28:46;;;;;;;7.27;4.33;;;;;;;9.05;nan;-24069.75;5034080;28;20223;-73
2022/11/23 04:31:11;;;;;;;6.87;3.70;;;;;;;9.15;nan;-24072.72;5035280;28;20289;-73
2022/11/23 04:33:37;;;;;;;4.73;3.27;;;;;;;8.74;nan;-24061.25;5036000;28;20310;-74
2022/11/23 04:36:02;;;;;;;3.93;2.83;;;;;;;9.07;nan;-24070.31;5034041;28;20182;-74
2022/11/23 04:38:28;;;;;;;3.60;2.97;;;;;;;8.64;nan;-24058.44;5034501;28;20187;-73
2022/11/23 04:40:53;;;;;;;5.70;3.40;;;;;;;8.79;nan;-24062.53;5033984;28;20191;-73
2022/11/23 04:43:19;;;;;;;6.23;3.70;;;;;;;8.85;nan;-24064.38;5033329;28;20175;-73
2022/11/23 04:45:44;;;;;;;3.33;2.87;;;;;;;9.07;nan;-24070.31;5034518;28;20273;-73
2022/11/23 04:48:10;;;;;;;8.13;4.43;;;;;;;9.05;nan;-24069.75;5035581;28;20210;-73
2022/11/23 04:50:36;;;;;;;4.37;3.27;;;;;;;8.65;nan;-24058.72;5033481;28;20678;-73
2022/11/23 04:53:03;;;;;;;5.73;3.60;;;;;;;9.04;nan;-24069.47;5032848;28;20233;-73
2022/11/23 04:55:28;;;;;;;4.50;2.77;;;;;;;9.13;nan;-24072.00;5034218;28;20317;-74
2022/11/23 04:57:53;;;;;;;6.27;3.27;;;;;;;9.08;nan;-24070.72;5032602;28;20262;-73
2022/11/23 05:00:19;;;;;;;3.10;2.80;;;;;;;9.08;nan;-24070.72;5032219;28;20259;-73
2022/11/23 05:02:44;;;;;;;5.10;3.77;;;;;;;8.95;nan;-24066.91;5034248;28;20183;-73
2022/11/23 05:05:10;;;;;;;5.87;2.93;;;;;;;9.03;nan;-24069.19;5033799;28;20207;-73
2022/11/23 05:07:35;;;;;;;4.20;3.13;;;;;;;9.16;nan;-24072.84;5015387;28;20199;-73
2022/11/23 05:10:01;;;;;;;4.07;2.53;;;;;;;8.98;nan;-24067.91;5029707;28;20206;-73
2022/11/23 05:12:26;;;;;;;4.00;2.57;;;;;;;8.73;nan;-24060.97;5034761;28;20274;-73
2022/11/23 05:14:52;;;;;;;3.30;2.83;;;;;;;9.24;nan;-24075.13;5029923;28;20568;-73
2022/11/23 05:17:17;;;;;;;5.23;3.10;;;;;;;9.20;nan;-24074.13;5031452;28;20185;-74
2022/11/23 05:19:44;;;;;;;5.30;3.00;;;;;;;8.80;nan;-24062.94;5029853;28;20270;-73
2022/11/23 05:22:09;;;;;;;4.43;2.57;;;;;;;9.00;nan;-24068.47;5027001;28;20220;-74
2022/11/23 05:24:35;;;;;;;3.47;2.80;;;;;;;9.30;nan;-24076.94;5038421;28;20203;-73
2022/11/23 05:27:00;;;;;;;3.30;2.63;;;;;;;9.02;nan;-24068.91;5023877;28;20296;-74
2022/11/23 05:29:26;;;;;;;4.00;2.67;;;;;;;9.25;nan;-24075.53;5034348;28;20250;-73
2022/11/23 05:31:51;;;;;;;3.80;2.88;;;;;;;9.23;nan;-24074.84;5039285;28;20209;-74
2022/11/23 05:34:16;;;;;;;3.67;3.23;;;;;;;9.02;nan;-24068.91;5036270;28;20766;-73
2022/11/23 05:36:42;;;;;;;6.23;3.20;;;;;;;9.33;nan;-24077.66;5034119;28;20189;-74
2022/11/23 05:39:07;;;;;;;5.93;3.25;;;;;;;9.18;nan;-24073.56;5028517;28;20566;-74
2022/11/23 05:41:33;;;;;;;5.83;2.50;;;;;;;9.16;nan;-24073.00;5019653;28;20256;-73
2022/11/23 05:43:58;;;;;;;7.35;3.05;;;;;;;9.42;nan;-24080.22;5031057;28;20649;-72
2022/11/23 05:46:23;;;;;;;5.88;2.97;;;;;;;9.49;nan;-24082.19;5030916;28;20270;-73
2022/11/23 05:48:49;;;;;;;3.13;2.60;;;;;;;9.32;nan;-24077.53;5030843;28;20237;-73
2022/11/23 05:51:14;;;;;;;5.60;3.28;;;;;;;9.16;nan;-24073.00;5030573;28;20213;-75
2022/11/23 05:53:40;;;;;;;4.70;2.70;;;;;;;9.28;nan;-24076.25;5030831;28;20171;-74
2022/11/23 05:56:05;;;;;;;3.75;3.30;;;;;;;9.49;nan;-24082.03;5030591;28;20203;-74
2022/11/23 05:58:31;;;;;;;4.13;3.07;;;;;;;9.64;nan;-24086.44;5030276;28;20171;-74
2022/11/23 06:00:58;;;;;;;5.75;3.20;;;;;;;9.63;nan;-24086.13;5030002;28;20179;-75
2022/11/23 06:03:23;;;;;;;4.03;2.65;;;;;;;9.39;nan;-24079.34;5032532;28;20179;-65
2022/11/23 06:05:48;;;;;;;2.58;2.33;;;;;;;9.73;nan;-24088.81;5033050;28;20183;-61
2022/11/23 06:08:14;;;;;;;5.38;3.40;;;;;;;9.34;nan;-24077.94;5034355;28;20242;-61
2022/11/23 06:10:39;;;;;;;5.68;3.35;;;;;;;9.99;nan;-24096.16;5038653;28;20214;-60
2022/11/23 06:13:04;;;;;;;5.72;2.78;;;;;;;9.86;nan;-24092.34;5017150;28;20193;-60
2022/11/23 06:15:30;;;;;;;4.43;3.30;;;;;;;9.76;nan;-24089.81;5033796;28;20186;-61
2022/11/23 06:18:00;;;;;;;5.28;3.08;;;;;;;9.79;nan;-24090.38;5034054;28;20255;-61
2022/11/23 06:20:27;;;;;;;5.75;3.20;;;;;;;9.96;nan;-24095.19;5034340;28;20642;-61
2022/11/23 06:22:53;;;;;;;4.93;3.08;;;;;;;9.96;nan;-24095.19;5034182;28;20205;-60
2022/11/23 06:25:19;;;;;;;6.30;3.78;;;;;;;10.20;nan;-24101.97;5034538;28;20167;-61
2022/11/23 06:27:58;;;;;;;5.43;3.53;;;;;;;10.04;nan;-24097.59;5034266;28;20172;-60
2022/11/23 06:30:25;;;;;;;8.05;3.78;;;;;;;10.08;nan;-24098.72;5034308;28;20233;-63
2022/11/23 06:32:50;;;;;;;4.95;2.75;;;;;;;5.69;nan;-23975.59;5033955;28;20213;-61
2022/11/23 06:35:16;;;;;;;4.40;2.97;;;;;;;10.50;nan;-24110.44;5033793;28;20172;-61
2022/11/23 06:37:42;;;;;;;4.78;2.97;;;;;;;10.51;nan;-24110.72;5029733;28;20180;-61
2022/11/23 06:40:09;;;;;;;4.72;3.25;;;;;;;10.34;nan;-24105.78;5019659;28;20271;-61
2022/11/23 06:42:34;;;;;;;8.13;3.25;;;;;;;10.50;nan;-24110.44;5025682;28;20221;-61
2022/11/23 06:44:59;;;;;;;8.63;3.10;;;;;;;10.67;nan;-24114.94;5013878;28;20524;-61
2022/11/23 06:47:27;;;;;;;4.30;3.10;;;;;;;10.78;nan;-24118.03;5026698;28;20179;-62
2022/11/23 06:49:52;;;;;;;5.65;3.63;;;;;;;10.28;nan;-24104.22;5033557;28;20275;-61
2022/11/23 06:52:18;;;;;;;4.65;3.00;;;;;;;10.41;nan;-24107.75;5000647;28;20601;-61
2022/11/23 06:54:43;;;;;;;5.03;3.78;;;;;;;8.53;nan;-24055.31;5026322;28;20183;-61
2022/11/23 06:57:09;;;;;;;6.88;3.88;;;;;;;10.92;nan;-24122.13;5018308;28;20192;-62
2022/11/23 06:59:35;;;;;;;5.75;3.80;;;;;;;10.63;nan;-24113.97;5013957;28;20168;-62
2022/11/23 07:02:00;;;;;;;6.50;3.78;;;;;;;11.01;nan;-24124.53;5033447;28;20179;-62
2022/11/23 07:04:25;;;;;;;6.13;4.15;;;;;;;10.69;nan;-24115.50;5033318;28;20190;-61
2022/11/23 07:06:51;;;;;;;10.65;5.78;;;;;;;11.06;nan;-24125.94;5033323;28;20188;-61
2022/11/23 07:09:16;;;;;;;6.57;4.25;;;;;;;10.89;nan;-24121.16;5033236;28;20262;-62
2022/11/23 07:11:42;;;;;;;7.95;4.70;;;;;;;11.28;nan;-24132.00;5033204;28;20226;-62
2022/11/23 07:14:07;;;;;;;7.68;4.38;;;;;;;11.38;nan;-24134.81;5032231;28;20175;-62
2022/11/23 07:16:33;;;;;;;5.88;4.15;;;;;;;11.07;nan;-24126.38;5032813;28;20167;-62
2022/11/23 07:18:58;;;;;;;7.68;4.18;;;;;;;11.52;nan;-24138.78;5033082;28;20623;-62
2022/11/23 07:21:24;;;;;;;6.68;3.95;;;;;;;11.46;nan;-24137.09;5033661;28;20182;-62
2022/11/23 07:23:49;;;;;;;8.07;4.40;;;;;;;11.56;nan;-24139.91;5001323;28;20183;-62
2022/11/23 07:26:14;;;;;;;11.80;4.60;;;;;;;10.94;nan;-24122.56;5024545;28;20175;-62
2022/11/23 07:28:40;;;;;;;5.45;3.95;;;;;;;11.59;nan;-24140.75;5009425;28;20271;-62
2022/11/23 07:31:05;;;;;;;6.35;4.10;;;;;;;11.67;nan;-24142.84;5018244;28;20196;-62
2022/11/23 07:33:31;;;;;;;6.38;4.30;;;;;;;11.64;nan;-24142.16;5029600;28;20303;-62
2022/11/23 07:36:01;;;;;;;8.30;4.35;;;;;;;11.69;nan;-24143.41;5033120;28;20198;-61
2022/11/23 07:38:26;;;;;;;8.13;4.50;;;;;;;11.97;nan;-24151.16;5033108;28;20229;-61
2022/11/23 07:40:52;;;;;;;10.25;4.28;;;;;;;11.87;nan;-24148.63;5033005;28;20266;-62
2022/11/23 07:43:17;;;;;;;6.13;4.35;;;;;;;11.94;nan;-24150.59;5032727;28;20217;-62
2022/11/23 07:45:42;;;;;;;7.82;4.53;;;;;;;11.88;nan;-24148.78;5032347;28;20545;-62
2022/11/23 07:48:09;;;;;;;7.80;4.63;;;;;;;11.76;nan;-24145.41;5032165;28;20168;-62
2022/11/23 07:50:36;;;;;;;5.70;3.80;;;;;;;11.92;nan;-24149.91;5032695;28;20211;-62
2022/11/23 07:53:04;;;;;;;7.80;4.55;;;;;;;7.88;nan;-24037.03;5032410;28;20175;-62
2022/11/23 07:55:30;;;;;;;7.72;3.25;;;;;;;11.77;nan;-24145.81;5032156;28;20171;-62
2022/11/23 07:57:56;;;;;;;8.73;4.80;;;;;;;12.01;nan;-24152.44;5032463;28;20232;-62
2022/11/23 08:00:24;;;;;;;8.00;4.30;;;;;;;12.12;nan;-24155.53;5032616;28;20172;-62
2022/11/23 08:02:49;;;;;;;9.00;3.92;;;;;;;11.86;nan;-24148.22;5032210;28;20630;-61
2022/11/23 08:05:15;;;;;;;8.63;4.45;;;;;;;12.07;nan;-24154.00;5031756;28;20167;-62
2022/11/23 08:07:41;;;;;;;8.50;4.22;;;;;;;12.51;nan;-24166.22;5032269;28;20651;-61
2022/11/23 08:10:07;;;;;;;6.07;3.80;;;;;;;12.42;nan;-24163.69;5032134;28;20195;-63
2022/11/23 08:12:32;;;;;;;7.55;3.88;;;;;;;12.44;nan;-24164.41;5032334;28;20266;-61
2022/11/23 08:14:57;;;;;;;12.38;3.72;;;;;;;12.56;nan;-24167.63;5032093;28;20631;-61
2022/11/23 08:17:23;;;;;;;11.43;4.30;;;;;;;12.44;nan;-24164.25;5032374;28;20210;-61
2022/11/23 08:19:48;;;;;;;6.00;3.53;;;;;;;12.04;nan;-24153.28;5032471;28;20171;-61
2022/11/23 08:22:14;;;;;;;5.78;3.50;;;;;;;12.14;nan;-24156.09;5032013;28;20611;-61
2022/11/23 08:24:39;;;;;;;6.60;4.57;;;;;;;12.19;nan;-24157.38;5032748;28;20178;-74
2022/11/23 08:27:05;;;;;;;7.65;4.28;;;;;;;11.98;nan;-24151.59;5035654;28;20182;-74
2022/11/23 08:29:30;;;;;;;6.97;3.63;;;;;;;11.81;nan;-24146.94;5005856;28;20319;-74
2022/11/23 08:31:56;;;;;;;7.20;4.00;;;;;;;12.07;nan;-24154.13;5024056;28;20223;-74
2022/11/23 08:34:21;;;;;;;6.50;3.80;;;;;;;11.94;nan;-24150.59;5031665;28;20213;-74
2022/11/23 08:36:47;;;;;;;9.63;4.15;;;;;;;12.21;nan;-24158.06;5031369;28;20294;-75
2022/11/23 08:39:13;;;;;;;7.60;3.92;;;;;;;12.29;nan;-24160.31;5031435;28;20168;-74
2022/11/23 08:41:40;;;;;;;6.90;3.72;;;;;;;12.23;nan;-24158.50;5031126;28;20626;-74
2022/11/23 08:44:08;;;;;;;6.20;4.00;;;;;;;12.32;nan;-24161.16;5031230;28;20186;-75
2022/11/23 08:46:34;;;;;;;13.77;3.97;;;;;;;12.48;nan;-24165.38;5031519;28;20174;-75
2022/11/23 08:49:01;;;;;;;8.38;3.92;;;;;;;12.36;nan;-24162.28;5031888;28;20179;-75
2022/11/23 08:51:26;;;;;;;8.15;4.18;;;;;;;12.47;nan;-24165.09;5013518;28;20203;-75
2022/11/23 08:53:51;;;;;;;8.63;4.80;;;;;;;12.19;nan;-24157.50;5031575;28;20619;-74
2022/11/23 08:56:18;;;;;;;7.57;3.97;;;;;;;12.18;nan;-24157.22;5031000;28;20205;-74
2022/11/23 08:58:44;;;;;;;6.75;3.92;;;;;;;12.13;nan;-24155.66;5030978;28;20260;-74
2022/11/23 09:01:11;;;;;;;8.02;3.58;;;;;;;12.70;nan;-24171.56;5031324;28;20223;-75
2022/11/23 09:03:37;;;;;;;7.82;4.05;;;;;;;12.33;nan;-24161.44;5031433;28;20176;-75
2022/11/23 09:06:03;;;;;;;6.28;3.97;;;;;;;12.93;nan;-24178.03;5031423;28;20192;-74
2022/11/23 09:08:28;;;;;;;8.52;4.20;;;;;;;12.85;nan;-24175.78;5031343;28;20544;-75
2022/11/23 09:10:59;;;;;;;7.32;4.10;;;;;;;13.35;nan;-24189.72;5031140;28;20588;-75
2022/11/23 09:13:24;;;;;;;6.72;3.80;;;;;;;13.56;nan;-24195.59;5030660;28;20246;-75
2022/11/23 09:15:50;;;;;;;8.63;4.80;;;;;;;13.39;nan;-24190.84;5031259;28;20262;-75
2022/11/23 09:18:15;;;;;;;7.45;3.20;;;;;;;13.25;nan;-24186.91;5031131;28;20199;-75
2022/11/23 09:20:40;;;;;;;11.57;4.03;;;;;;;13.33;nan;-24189.16;5031058;28;20182;-75
2022/11/23 09:23:06;;;;;;;6.78;3.90;;;;;;;13.40;nan;-24190.97;5030860;28;20473;-75
2022/11/23 09:25:31;;;;;;;5.60;3.58;;;;;;;13.55;nan;-24195.31;5030932;28;20179;-75
2022/11/23 09:28:03;;;;;;;10.98;5.00;;;;;;;13.87;nan;-24204.03;5031082;28;20221;-75
2022/11/23 09:30:28;;;;;;;7.30;4.35;;;;;;;13.82;nan;-24202.78;5031406;28;20321;-75
2022/11/23 09:32:56;;;;;;;7.80;3.70;;;;;;;14.44;nan;-24219.88;5031129;28;20206;-75
2022/11/23 09:35:21;;;;;;;6.45;3.00;;;;;;;13.96;nan;-24206.56;5031002;28;20175;-75
2022/11/23 09:37:47;;;;;;;8.15;4.07;;;;;;;14.35;nan;-24217.50;5030627;28;20290;-75
2022/11/23 09:40:16;;;;;;;8.32;3.95;;;;;;;14.53;nan;-24222.56;5030768;28;20293;-75
2022/11/23 09:42:52;;;;;;;9.50;4.30;;;;;;;13.88;nan;-24204.44;5030285;28;20164;-74
2022/11/23 09:45:37;;;;;;;7.13;3.90;;;;;;;14.25;nan;-24214.56;5029669;28;20175;-74
2022/11/23 09:48:29;;;;;;;9.88;3.72;;;;;;;14.48;nan;-24221.16;5031060;28;20168;-74
2022/11/23 09:51:04;;;;;;;9.90;3.50;;;;;;;;;;5031130;28;20222;-75
2022/11/23 09:53:37;;;;;;;7.78;3.55;;;;;;;14.96;nan;-24234.31;5031189;28;20224;-74
2022/11/23 09:56:03;;;;;;;5.50;3.33;;;;;;;14.75;nan;-24228.56;5031292;28;20340;-74
2022/11/23 09:58:39;;;;;;;5.43;3.17;;;;;;;14.50;nan;-24221.56;5030759;28;20666;-74
2022/11/23 10:01:10;;;;;;;12.27;3.88;;;;;;;14.15;nan;-24212.03;5031030;28;20190;-75
2022/11/23 10:03:37;;;;;;;6.07;3.30;;;;;;;13.96;nan;-24206.56;5031007;28;20167;-74
2022/11/23 10:06:18;;;;;;;7.03;3.38;;;;;;;14.00;nan;-24207.81;5031067;28;20175;-74
2022/11/23 10:09:40;;;;;;;7.03;3.60;;;;;;;14.33;nan;-24216.81;5031160;28;20224;-74
2022/11/23 10:12:24;;;;;;;4.30;3.05;;;;;;;14.39;nan;-24218.47;4950907;29;20209;-74
2022/11/23 10:15:40;;;;;;;5.05;3.13;;;;;;;14.13;nan;-24211.47;4951002;29;20163;-74
2022/11/23 10:18:23;;;;;;;5.93;3.47;;;;;;;13.73;nan;-24200.25;4996979;28;20187;-75
2022/11/23 10:21:04;;;;;;;6.40;3.50;;;;;;;13.64;nan;-24197.72;5030919;28;20250;-74
2022/11/23 10:23:44;;;;;;;5.10;3.40;;;;;;;13.84;nan;-24203.19;5030971;28;20631;-74
2022/11/23 10:26:14;;;;;;;7.28;3.50;;;;;;;14.08;nan;-24210.06;5030708;28;20630;-74
2022/11/23 10:28:40;;;;;;;5.57;3.45;;;;;;;14.36;nan;-24217.78;5030531;28;20246;-74
2022/11/23 10:31:13;;;;;;;7.88;3.90;;;;;;;14.95;nan;-24234.19;5030966;28;20192;-74
2022/11/23 10:33:49;;;;;;;8.27;4.40;;;;;;;11.71;nan;-24143.97;5026925;28;20671;-74
2022/11/23 10:36:15;;;;;;;9.38;4.25;;;;;;;14.71;nan;-24227.47;5010613;28;20195;-76
2022/11/23 10:38:41;;;;;;;5.57;3.45;;;;;;;14.40;nan;-24218.91;5026765;28;20187;-74
2022/11/23 10:41:09;;;;;;;9.70;4.10;;;;;;;14.95;nan;-24234.03;5010725;28;20234;-74
2022/11/23 10:43:43;;;;;;;6.28;3.45;;;;;;;15.16;nan;-24239.94;5020199;28;20654;-74
2022/11/23 10:46:23;;;;;;;8.60;4.40;;;;;;;15.35;nan;-24245.25;5030693;28;20198;-74
2022/11/23 10:48:50;;;;;;;6.18;3.60;;;;;;;15.00;nan;-24235.59;5030669;28;20257;-74
2022/11/23 10:51:15;;;;;;;5.43;3.50;;;;;;;14.88;nan;-24232.09;5033652;28;20672;-74
2022/11/23 10:53:41;;;;;;;8.55;4.40;;;;;;;14.26;nan;-24214.84;5033638;28;21315;-74
2022/11/23 10:56:12;;;;;;;6.30;3.72;;;;;;;14.20;nan;-24213.16;5034048;28;20182;-74
2022/11/23 10:58:44;;;;;;;9.48;3.45;;;;;;;14.24;nan;-24214.41;5034203;28;20226;-74
2022/11/23 11:01:21;;;;;;;5.90;4.10;;;;;;;14.28;nan;-24215.41;5034095;28;20706;-75
2022/11/23 11:03:47;;;;;;;5.72;3.22;;;;;;;14.28;nan;-24215.53;5034082;28;20156;-74
2022/11/23 11:06:24;;;;;;;7.13;3.45;;;;;;;14.18;nan;-24212.59;5034279;28;20259;-74
2022/11/23 11:09:18;;;;;;;7.25;3.63;;;;;;;14.89;nan;-24232.50;5034217;28;20266;-75
2022/11/23 11:11:51;;;;;;;6.22;3.35;;;;;;;14.69;nan;-24226.91;5012571;28;20207;-75
2022/11/23 11:14:19;;;;;;;9.65;3.88;;;;;;;14.74;nan;-24228.16;5031818;28;20244;-75
2022/11/23 11:16:47;;;;;;;5.88;3.80;;;;;;;14.94;nan;-24233.75;5014296;28;20172;-76
2022/11/23 11:19:26;;;;;;;5.63;3.58;;;;;;;14.92;nan;-24233.22;5020531;28;20179;-74
2022/11/23 11:21:52;;;;;;;7.95;3.80;;;;;;;14.96;nan;-24234.47;5033610;28;20174;-74
2022/11/23 11:24:22;;;;;;;5.53;3.45;;;;;;;15.21;nan;-24241.34;5032956;28;20649;-74
2022/11/23 11:27:14;;;;;;;7.03;3.72;;;;;;;15.47;nan;-24248.63;5032971;28;20259;-75
2022/11/23 11:29:42;;;;;;;5.50;3.47;;;;;;;15.43;nan;-24247.50;5033483;28;20238;-76
2022/11/23 11:32:12;;;;;;;7.68;4.15;;;;;;;15.45;nan;-24247.91;5033170;28;20257;-76
2022/11/23 11:34:48;;;;;;;7.30;3.40;;;;;;;15.56;nan;-24251.00;5033442;28;20171;-76
2022/11/23 11:37:31;;;;;;;5.20;3.22;;;;;;;15.70;nan;-24254.78;5033033;28;20170;-76
2022/11/23 11:40:22;;;;;;;6.55;3.35;;;;;;;15.36;nan;-24245.38;5033352;28;20171;-74
2022/11/23 11:43:01;;;;;;;4.15;3.15;;;;;;;15.23;nan;-24241.88;5002409;28;20195;-76
2022/11/23 11:45:38;;;;;;;6.07;3.72;;;;;;;15.03;nan;-24236.44;5022574;28;20634;-74
2022/11/23 11:48:07;;;;;;;9.70;4.03;;;;;;;15.15;nan;-24239.66;5013504;28;20198;-75
2022/11/23 11:50:43;;;;;;;5.68;3.10;;;;;;;15.30;nan;-24243.84;5029756;28;20290;-75